createdAt,value
2023-12-31T00:01:08.047Z,56.23
2023-12-31T00:03:38.699Z,57.10
2023-12-31T00:06:08.828Z,56.55
2023-12-31T00:08:39.110Z,57.44
2023-12-31T00:11:08.938Z,57.53
2023-12-31T00:13:39.449Z,56.93
2023-12-31T00:16:13.870Z,59.26
2023-12-31T00:18:44.797Z,57.38
2023-12-31T00:21:15.185Z,57.67
2023-12-31T00:23:45.934Z,59.63
2023-12-31T00:26:16.733Z,59.06
2023-12-31T00:28:47.204Z,59.85
2023-12-31T00:31:17.428Z,63.60
2023-12-31T00:33:48.038Z,61.58
2023-12-31T00:36:18.445Z,62.65
2023-12-31T00:38:51.034Z,61.45
2023-12-31T00:41:21.577Z,64.52
2023-12-31T00:43:52.123Z,65.76
2023-12-31T00:46:22.553Z,62.78
2023-12-31T00:48:52.919Z,64.46
2023-12-31T00:51:23.440Z,63.73
2023-12-31T00:53:54.286Z,65.82
2023-12-31T00:56:24.460Z,66.12
2023-12-31T00:58:54.853Z,64.62
2023-12-31T01:01:24.919Z,64.53
2023-12-31T01:03:55.393Z,64.62
2023-12-31T01:06:25.380Z,66.20
2023-12-31T01:08:59.172Z,66.04
2023-12-31T01:11:29.451Z,65.46
2023-12-31T01:13:59.695Z,67.43
2023-12-31T01:16:30.068Z,65.47
2023-12-31T01:19:00.647Z,65.25
2023-12-31T01:21:31.370Z,67.74
2023-12-31T01:24:02.076Z,66.20
2023-12-31T01:26:32.290Z,66.57
2023-12-31T01:29:02.484Z,66.43
2023-12-31T01:31:32.739Z,69.50
2023-12-31T01:34:02.920Z,67.42
2023-12-31T01:36:33.293Z,66.76
2023-12-31T01:39:03.347Z,71.30
2023-12-31T01:41:33.703Z,67.02
2023-12-31T01:44:05.650Z,68.54
2023-12-31T01:46:38.446Z,70.52
2023-12-31T01:49:11.777Z,69.38
2023-12-31T01:51:43.027Z,66.96
2023-12-31T01:54:13.851Z,68.94
2023-12-31T01:56:45.794Z,68.31
2023-12-31T01:59:16.794Z,68.61
2023-12-31T02:01:56.151Z,69.46
2023-12-31T02:04:36.416Z,70.12
2023-12-31T02:07:06.596Z,69.11
2023-12-31T02:09:37.096Z,68.04
2023-12-31T02:12:08.528Z,67.07
2023-12-31T02:14:39.351Z,66.40
2023-12-31T02:17:09.647Z,65.75
2023-12-31T02:19:41.106Z,65.73
2023-12-31T02:22:11.532Z,65.72
2023-12-31T02:24:53.076Z,65.63
2023-12-31T02:27:23.341Z,65.47
2023-12-31T02:29:53.477Z,65.59
2023-12-31T02:32:23.684Z,65.67
2023-12-31T02:34:54.578Z,65.63
2023-12-31T02:37:24.980Z,65.77
2023-12-31T02:39:55.475Z,70.00
2023-12-31T02:42:25.589Z,70.65
2023-12-31T02:44:55.871Z,70.52
2023-12-31T02:47:26.352Z,72.76
2023-12-31T02:49:59.081Z,70.03
2023-12-31T02:52:29.618Z,73.32
2023-12-31T02:54:59.815Z,72.90
2023-12-31T02:57:30.150Z,73.50
2023-12-31T03:00:00.432Z,74.42
2023-12-31T03:02:30.674Z,71.23
2023-12-31T03:05:01.197Z,74.95
2023-12-31T03:07:31.321Z,71.71
2023-12-31T03:10:02.340Z,73.66
2023-12-31T03:12:32.726Z,71.65
2023-12-31T03:15:03.457Z,71.47
2023-12-31T03:17:33.987Z,70.95
2023-12-31T03:20:05.007Z,72.62
2023-12-31T03:22:42.043Z,71.11
2023-12-31T03:25:14.191Z,70.54
2023-12-31T03:27:47.721Z,69.70
2023-12-31T03:30:18.522Z,69.96
2023-12-31T03:32:48.848Z,71.39
2023-12-31T03:35:19.527Z,70.17
2023-12-31T03:37:52.217Z,71.82
2023-12-31T03:40:26.204Z,70.87
2023-12-31T03:42:56.719Z,69.35
2023-12-31T03:45:26.848Z,71.42
2023-12-31T03:47:57.324Z,70.39
2023-12-31T03:50:28.107Z,69.63
2023-12-31T03:52:59.707Z,71.19
2023-12-31T03:55:30.451Z,69.50
2023-12-31T03:58:01.032Z,70.19
2023-12-31T04:00:31.113Z,69.79
2023-12-31T04:03:01.876Z,69.51
2023-12-31T04:05:33.385Z,69.71
2023-12-31T04:08:04.158Z,69.31
2023-12-31T04:10:34.720Z,70.48
2023-12-31T04:13:07.698Z,69.14
2023-12-31T04:15:38.331Z,69.68
2023-12-31T04:18:08.656Z,69.22
2023-12-31T04:20:38.881Z,68.76
2023-12-31T04:23:10.307Z,68.59
2023-12-31T04:25:41.101Z,69.18
2023-12-31T04:28:11.600Z,68.74
2023-12-31T04:30:42.832Z,69.55
2023-12-31T04:33:13.523Z,68.15
2023-12-31T04:35:50.939Z,67.47
2023-12-31T04:38:22.713Z,68.24
2023-12-31T04:40:52.879Z,69.06
2023-12-31T04:43:23.512Z,68.78
2023-12-31T04:45:53.672Z,70.87
2023-12-31T04:48:24.002Z,69.16
2023-12-31T04:50:54.382Z,69.76
2023-12-31T04:53:25.109Z,68.26
2023-12-31T04:55:55.751Z,67.84
2023-12-31T04:58:26.165Z,68.95
2023-12-31T05:00:56.258Z,68.30
2023-12-31T05:03:27.700Z,68.61
2023-12-31T05:05:57.813Z,68.15
2023-12-31T05:08:28.167Z,69.17
2023-12-31T05:10:58.326Z,68.27
2023-12-31T05:13:28.596Z,68.48
2023-12-31T05:15:59.333Z,69.22
2023-12-31T05:18:29.858Z,68.43
2023-12-31T05:21:01.860Z,68.29
2023-12-31T05:23:34.878Z,68.90
2023-12-31T05:26:06.190Z,68.50
2023-12-31T05:28:37.601Z,69.42
2023-12-31T05:31:07.702Z,69.44
2023-12-31T05:33:38.576Z,68.56
2023-12-31T05:36:09.079Z,68.88
2023-12-31T05:38:39.686Z,68.90
2023-12-31T05:41:09.721Z,68.89
2023-12-31T05:43:40.217Z,68.79
2023-12-31T05:46:10.590Z,68.28
2023-12-31T05:48:44.491Z,69.54
2023-12-31T05:51:14.842Z,67.85
2023-12-31T05:53:45.316Z,66.65
2023-12-31T05:56:16.143Z,65.79
2023-12-31T05:58:48.869Z,64.74
2023-12-31T06:01:20.911Z,62.66
2023-12-31T06:03:51.558Z,62.64
2023-12-31T06:06:22.662Z,61.80
2023-12-31T06:08:53.322Z,61.19
2023-12-31T06:11:23.642Z,63.08
2023-12-31T06:13:53.923Z,60.88
2023-12-31T06:16:24.534Z,61.56
2023-12-31T06:18:54.718Z,60.73
2023-12-31T06:21:25.408Z,59.69
2023-12-31T06:23:57.309Z,58.76
2023-12-31T06:26:28.281Z,58.25
2023-12-31T06:28:58.571Z,59.71
2023-12-31T06:31:28.954Z,59.35
2023-12-31T06:33:59.451Z,58.13
2023-12-31T06:36:29.644Z,59.37
2023-12-31T06:39:00.355Z,56.50
2023-12-31T06:41:30.337Z,58.18
2023-12-31T06:44:01.438Z,58.23
2023-12-31T06:46:31.614Z,58.23
2023-12-31T06:49:01.900Z,55.54
2023-12-31T06:51:32.454Z,55.16
2023-12-31T06:54:02.958Z,55.73
2023-12-31T06:56:33.537Z,55.01
2023-12-31T06:59:05.116Z,56.76
2023-12-31T07:01:35.853Z,55.92
2023-12-31T07:04:07.344Z,54.52
2023-12-31T07:06:40.549Z,55.45
2023-12-31T07:09:11.288Z,54.33
2023-12-31T07:11:41.214Z,54.63
2023-12-31T07:14:11.502Z,53.83
2023-12-31T07:16:41.606Z,52.52
2023-12-31T07:19:11.958Z,53.52
2023-12-31T07:21:42.005Z,52.22
2023-12-31T07:24:12.585Z,53.78
2023-12-31T07:26:43.070Z,54.30
2023-12-31T07:29:13.711Z,53.08
2023-12-31T07:31:44.322Z,54.31
2023-12-31T07:34:15.720Z,52.56
2023-12-31T07:36:47.140Z,53.38
2023-12-31T07:39:18.489Z,52.37
2023-12-31T07:41:50.641Z,52.03
2023-12-31T07:44:24.985Z,53.49
2023-12-31T07:46:55.170Z,52.28
2023-12-31T07:49:25.890Z,52.57
2023-12-31T07:51:56.971Z,52.45
2023-12-31T07:54:28.163Z,52.08
2023-12-31T07:56:58.647Z,53.46
2023-12-31T07:59:29.741Z,51.98
2023-12-31T08:02:02.239Z,53.72
2023-12-31T08:04:33.307Z,52.14
2023-12-31T08:07:05.758Z,51.26
2023-12-31T08:09:36.385Z,52.32
2023-12-31T08:12:06.941Z,53.17
2023-12-31T08:14:37.579Z,50.94
2023-12-31T08:17:07.685Z,52.94
2023-12-31T08:19:38.048Z,54.28
2023-12-31T08:22:09.361Z,55.93
2023-12-31T08:24:40.197Z,56.68
2023-12-31T08:27:10.983Z,59.70
2023-12-31T08:29:44.743Z,60.72
2023-12-31T08:32:15.635Z,61.05
2023-12-31T08:34:47.164Z,60.09
2023-12-31T08:37:18.153Z,59.29
2023-12-31T08:39:48.439Z,58.79
2023-12-31T08:42:19.771Z,58.22
2023-12-31T08:45:01.856Z,57.65
2023-12-31T08:47:36.784Z,57.45
2023-12-31T08:50:11.731Z,57.89
2023-12-31T08:52:47.542Z,57.61
2023-12-31T08:55:18.865Z,56.64
2023-12-31T08:57:50.248Z,57.18
2023-12-31T09:00:20.735Z,56.17
2023-12-31T09:02:51.047Z,57.49
2023-12-31T09:05:21.586Z,57.78
2023-12-31T09:07:52.182Z,57.21
2023-12-31T09:10:22.792Z,57.54
2023-12-31T09:12:53.143Z,56.94
2023-12-31T09:15:23.833Z,57.12
2023-12-31T09:17:54.132Z,57.54
2023-12-31T09:20:25.168Z,57.55
2023-12-31T09:22:55.855Z,57.09
2023-12-31T09:25:26.577Z,58.88
2023-12-31T09:27:57.569Z,58.71
2023-12-31T09:30:28.649Z,58.67
2023-12-31T09:33:00.742Z,60.55
2023-12-31T09:35:30.992Z,68.19
2023-12-31T09:38:01.206Z,63.47
2023-12-31T09:40:31.485Z,65.81
2023-12-31T09:43:05.584Z,68.15
2023-12-31T09:45:36.837Z,64.85
2023-12-31T09:48:07.993Z,66.41
2023-12-31T09:50:38.584Z,68.39
2023-12-31T09:53:10.665Z,66.85
2023-12-31T09:55:41.822Z,66.29
2023-12-31T09:58:14.108Z,69.26
2023-12-31T10:00:44.473Z,67.12
2023-12-31T10:03:15.921Z,67.05
2023-12-31T10:05:49.511Z,69.26
2023-12-31T10:08:21.104Z,67.59
2023-12-31T10:10:53.571Z,66.87
2023-12-31T10:13:24.040Z,65.82
2023-12-31T10:15:54.596Z,65.04
2023-12-31T10:18:28.273Z,65.73
2023-12-31T10:20:59.038Z,64.75
2023-12-31T10:23:29.637Z,64.86
2023-12-31T10:26:00.734Z,64.72
2023-12-31T10:28:31.114Z,64.87
2023-12-31T10:31:01.511Z,64.95
2023-12-31T10:33:32.047Z,64.91
2023-12-31T10:36:12.439Z,66.65
2023-12-31T10:38:49.909Z,65.88
2023-12-31T10:41:23.622Z,65.89
2023-12-31T10:43:56.069Z,65.30
2023-12-31T10:46:30.835Z,65.40
2023-12-31T10:49:04.920Z,65.72
2023-12-31T10:51:41.700Z,65.59
2023-12-31T10:54:18.290Z,65.57
2023-12-31T10:56:51.422Z,65.43
2023-12-31T10:59:22.775Z,65.66
2023-12-31T11:01:54.725Z,65.50
2023-12-31T11:04:30.167Z,66.03
2023-12-31T11:07:06.293Z,65.49
2023-12-31T11:09:38.043Z,65.93
2023-12-31T11:12:10.754Z,70.45
2023-12-31T11:15:06.715Z,75.39
2023-12-31T11:18:01.518Z,71.08
2023-12-31T11:20:57.034Z,70.32
2023-12-31T11:23:37.620Z,69.35
2023-12-31T11:26:09.456Z,67.95
2023-12-31T11:28:40.713Z,68.13
2023-12-31T11:31:12.836Z,75.77
2023-12-31T11:33:43.369Z,72.07
2023-12-31T11:36:15.543Z,75.87
2023-12-31T11:39:03.421Z,78.13
2023-12-31T11:41:35.865Z,77.76
2023-12-31T11:44:06.970Z,77.37
2023-12-31T11:46:42.862Z,78.15
2023-12-31T11:49:15.025Z,73.04
2023-12-31T11:51:54.876Z,73.56
2023-12-31T11:54:36.083Z,71.41
2023-12-31T11:57:08.824Z,70.89
2023-12-31T11:59:41.571Z,70.78
2023-12-31T12:02:12.612Z,69.93
2023-12-31T12:04:43.233Z,70.04
2023-12-31T12:07:13.771Z,69.81
2023-12-31T12:09:44.132Z,69.97
2023-12-31T12:12:14.621Z,69.62
2023-12-31T12:14:44.713Z,69.56
2023-12-31T12:17:15.423Z,69.55
2023-12-31T12:19:45.893Z,69.20
2023-12-31T12:22:16.828Z,69.61
2023-12-31T12:24:48.060Z,69.50
2023-12-31T12:27:19.188Z,69.51
2023-12-31T12:29:50.375Z,69.33
2023-12-31T12:32:21.535Z,69.05
2023-12-31T12:34:52.382Z,69.40
2023-12-31T12:37:22.984Z,69.15
2023-12-31T12:39:58.999Z,69.42
2023-12-31T12:42:29.696Z,69.31
2023-12-31T12:45:00.685Z,69.10
2023-12-31T12:47:31.812Z,69.17
2023-12-31T12:50:02.632Z,69.10
2023-12-31T12:52:33.280Z,69.24
2023-12-31T12:55:03.505Z,69.28
2023-12-31T12:57:33.938Z,69.11
2023-12-31T13:00:05.081Z,69.33
2023-12-31T13:02:36.625Z,69.37
2023-12-31T13:05:07.247Z,68.92
2023-12-31T13:07:37.327Z,69.21
2023-12-31T13:10:08.024Z,69.21
2023-12-31T13:12:38.486Z,69.32
2023-12-31T13:15:09.008Z,69.20
2023-12-31T13:17:39.340Z,69.52
2023-12-31T13:20:10.773Z,69.38
2023-12-31T13:22:41.153Z,69.33
2023-12-31T13:25:12.048Z,69.32
2023-12-31T13:27:42.812Z,69.67
2023-12-31T13:30:14.005Z,69.14
2023-12-31T13:32:46.569Z,69.42
2023-12-31T13:35:16.966Z,69.38
2023-12-31T13:37:47.333Z,69.39
2023-12-31T13:40:17.782Z,69.59
2023-12-31T13:42:48.121Z,69.34
2023-12-31T13:45:18.565Z,69.48
2023-12-31T13:47:48.832Z,69.54
2023-12-31T13:50:20.296Z,69.64
2023-12-31T13:52:50.738Z,69.90
2023-12-31T13:55:20.973Z,69.63
2023-12-31T13:57:51.279Z,69.86
2023-12-31T14:00:21.344Z,69.92
2023-12-31T14:02:57.325Z,69.85
2023-12-31T14:05:35.239Z,69.97
2023-12-31T14:08:05.961Z,70.06
2023-12-31T14:10:36.362Z,69.92
2023-12-31T14:13:06.892Z,70.21
2023-12-31T14:15:37.372Z,70.11
2023-12-31T14:18:07.953Z,70.18
2023-12-31T14:20:38.545Z,70.24
2023-12-31T14:23:10.531Z,70.06
2023-12-31T14:25:42.130Z,70.19
2023-12-31T14:28:13.036Z,70.40
2023-12-31T14:30:45.162Z,70.45
2023-12-31T14:33:15.696Z,70.40
2023-12-31T14:35:46.214Z,70.61
2023-12-31T14:38:16.909Z,70.61
2023-12-31T14:40:47.187Z,70.43
2023-12-31T14:43:17.477Z,70.64
2023-12-31T14:45:49.028Z,70.57
2023-12-31T14:48:21.132Z,70.62
2023-12-31T14:50:52.259Z,70.53
2023-12-31T14:53:22.918Z,70.52
2023-12-31T14:55:53.062Z,70.91
2023-12-31T14:58:25.516Z,70.83
2023-12-31T15:00:55.767Z,71.18
2023-12-31T15:03:26.023Z,70.99
2023-12-31T15:05:56.309Z,74.77
2023-12-31T15:08:26.561Z,73.45
2023-12-31T15:10:56.995Z,72.47
2023-12-31T15:13:27.596Z,70.73
2023-12-31T15:15:57.982Z,68.56
2023-12-31T15:18:29.811Z,68.65
2023-12-31T15:20:59.996Z,66.67
2023-12-31T15:23:30.758Z,65.27
2023-12-31T15:26:00.792Z,65.66
2023-12-31T15:28:31.810Z,63.00
2023-12-31T15:31:03.293Z,63.33
2023-12-31T15:33:33.887Z,60.51
2023-12-31T15:36:04.158Z,60.16
2023-12-31T15:38:34.445Z,60.36
2023-12-31T15:41:04.831Z,59.56
2023-12-31T15:43:35.023Z,61.40
2023-12-31T15:46:05.266Z,58.35
2023-12-31T15:49:02.986Z,57.48
2023-12-31T15:51:34.138Z,56.52
2023-12-31T15:54:04.742Z,59.18
2023-12-31T15:56:34.629Z,60.29
2023-12-31T15:59:05.069Z,59.87
2023-12-31T16:01:35.541Z,59.84
2023-12-31T16:04:06.079Z,59.41
2023-12-31T16:06:36.189Z,58.74
2023-12-31T16:09:06.471Z,58.45
2023-12-31T16:11:36.637Z,58.12
2023-12-31T16:14:07.041Z,57.97
2023-12-31T16:16:37.477Z,58.18
2023-12-31T16:19:08.128Z,57.32
2023-12-31T16:21:39.151Z,57.81
2023-12-31T16:24:09.590Z,57.18
2023-12-31T16:26:39.590Z,57.31
2023-12-31T16:29:10.421Z,57.11
2023-12-31T16:31:40.642Z,56.93
2023-12-31T16:34:10.948Z,56.77
2023-12-31T16:36:41.847Z,56.79
2023-12-31T16:39:12.133Z,55.98
2023-12-31T16:41:42.465Z,55.94
2023-12-31T16:44:13.123Z,56.20
2023-12-31T16:46:43.336Z,56.12
2023-12-31T16:49:13.609Z,55.74
2023-12-31T16:51:43.695Z,55.53
2023-12-31T16:54:13.947Z,55.41
2023-12-31T16:56:47.096Z,55.63
2023-12-31T16:59:19.462Z,55.58
2023-12-31T17:01:49.730Z,55.18
2023-12-31T17:04:20.160Z,54.85
2023-12-31T17:06:50.285Z,54.92
2023-12-31T17:09:20.649Z,54.77
2023-12-31T17:11:50.718Z,55.00
2023-12-31T17:14:21.056Z,54.60
2023-12-31T17:16:51.347Z,55.21
2023-12-31T17:19:22.604Z,54.36
2023-12-31T17:21:53.181Z,54.39
2023-12-31T17:24:23.815Z,54.77
2023-12-31T17:26:56.600Z,54.31
2023-12-31T17:29:27.846Z,54.27
2023-12-31T17:31:58.066Z,54.48
2023-12-31T17:34:28.818Z,54.56
2023-12-31T17:36:59.064Z,54.02
2023-12-31T17:39:29.195Z,54.19
2023-12-31T17:41:59.325Z,54.12
2023-12-31T17:44:29.662Z,53.79
2023-12-31T17:47:01.345Z,54.00
2023-12-31T17:49:31.826Z,53.91
2023-12-31T17:52:01.799Z,53.73
2023-12-31T17:54:32.344Z,53.24
2023-12-31T17:57:02.366Z,53.72
2023-12-31T17:59:32.914Z,53.64
2023-12-31T18:02:04.804Z,53.43
2023-12-31T18:04:37.481Z,53.38
2023-12-31T18:07:07.687Z,53.12
2023-12-31T18:09:38.726Z,53.47
2023-12-31T18:12:08.937Z,53.27
2023-12-31T18:14:39.634Z,52.73
2023-12-31T18:17:09.637Z,52.98
2023-12-31T18:19:40.736Z,53.04
2023-12-31T18:22:10.763Z,52.68
2023-12-31T18:24:41.081Z,52.56
2023-12-31T18:27:13.018Z,52.44
2023-12-31T18:29:46.770Z,52.73
2023-12-31T18:32:17.050Z,52.41
2023-12-31T18:34:47.465Z,52.39
2023-12-31T18:37:18.423Z,52.75
2023-12-31T18:39:50.527Z,52.34
2023-12-31T18:42:21.159Z,52.80
2023-12-31T18:44:51.810Z,52.68
2023-12-31T18:47:22.030Z,52.15
2023-12-31T18:49:52.296Z,52.00
2023-12-31T18:52:22.516Z,52.18
2023-12-31T18:54:52.812Z,52.31
2023-12-31T18:57:23.303Z,52.13
2023-12-31T18:59:53.492Z,52.03
2023-12-31T19:02:23.703Z,52.52
2023-12-31T19:04:54.094Z,52.06
2023-12-31T19:07:24.349Z,52.31
2023-12-31T19:09:54.888Z,51.98
2023-12-31T19:12:25.059Z,52.27
2023-12-31T19:14:55.392Z,52.13
2023-12-31T19:17:28.482Z,51.64
2023-12-31T19:19:59.624Z,51.62
2023-12-31T19:22:29.790Z,52.03
2023-12-31T19:25:00.033Z,51.71
2023-12-31T19:27:29.984Z,51.96
2023-12-31T19:30:00.709Z,51.98
2023-12-31T19:32:30.974Z,51.44
2023-12-31T19:35:01.233Z,51.50
2023-12-31T19:37:31.395Z,51.47
2023-12-31T19:40:01.671Z,51.34
2023-12-31T19:42:31.836Z,51.77
2023-12-31T19:45:02.199Z,51.65
2023-12-31T19:47:33.233Z,51.68
2023-12-31T19:50:04.042Z,51.43
2023-12-31T19:52:34.376Z,51.68
2023-12-31T19:55:06.044Z,51.06
2023-12-31T19:57:36.483Z,51.32
2023-12-31T20:00:07.583Z,51.13
2023-12-31T20:02:37.606Z,51.32
2023-12-31T20:05:08.231Z,51.47
2023-12-31T20:07:38.925Z,51.52
2023-12-31T20:10:09.741Z,51.25
2023-12-31T20:12:39.777Z,51.03
2023-12-31T20:15:10.531Z,51.10
2023-12-31T20:17:40.864Z,51.31
2023-12-31T20:20:12.299Z,51.12
2023-12-31T20:22:42.993Z,51.44
2023-12-31T20:25:16.570Z,51.57
2023-12-31T20:27:47.440Z,51.54
2023-12-31T20:30:18.408Z,51.36
2023-12-31T20:32:49.325Z,51.48
2023-12-31T20:35:20.772Z,51.21
2023-12-31T20:37:51.398Z,51.69
2023-12-31T20:40:24.379Z,51.04
2023-12-31T20:42:54.803Z,51.48
2023-12-31T20:45:27.049Z,50.92
2023-12-31T20:47:57.457Z,51.21
2023-12-31T20:50:28.489Z,51.13
2023-12-31T20:52:59.044Z,51.33
2023-12-31T20:55:33.256Z,51.21
2023-12-31T20:58:03.880Z,50.80
2023-12-31T21:00:35.833Z,51.36
2023-12-31T21:03:07.106Z,51.29
2023-12-31T21:05:37.736Z,51.19
2023-12-31T21:08:08.851Z,51.26
2023-12-31T21:10:39.347Z,51.19
2023-12-31T21:13:09.723Z,51.20
2023-12-31T21:15:42.369Z,51.21
2023-12-31T21:18:16.099Z,50.88
2023-12-31T21:20:48.617Z,50.90
2023-12-31T21:23:19.006Z,50.72
2023-12-31T21:25:50.555Z,51.22
2023-12-31T21:28:21.233Z,50.98
2023-12-31T21:30:52.276Z,51.17
2023-12-31T21:33:23.113Z,51.00
2023-12-31T21:35:53.450Z,50.72
2023-12-31T21:38:23.953Z,51.14
2023-12-31T21:40:54.251Z,50.70
2023-12-31T21:43:24.699Z,50.67
2023-12-31T21:45:54.778Z,51.02
2023-12-31T21:48:25.166Z,50.59
2023-12-31T21:50:55.344Z,50.53
2023-12-31T21:53:25.846Z,50.38
2023-12-31T21:56:11.265Z,50.91
2023-12-31T21:58:46.588Z,50.88
2023-12-31T22:01:17.017Z,50.81
2023-12-31T22:03:47.438Z,50.51
2023-12-31T22:06:17.713Z,50.61
2023-12-31T22:08:47.787Z,50.78
2023-12-31T22:11:19.902Z,50.50
2023-12-31T22:13:50.685Z,50.30
2023-12-31T22:16:21.992Z,50.48
2023-12-31T22:18:52.483Z,50.87
2023-12-31T22:21:23.256Z,50.35
2023-12-31T22:23:53.463Z,50.47
2023-12-31T22:26:23.322Z,50.18
2023-12-31T22:28:53.843Z,50.47
2023-12-31T22:31:24.574Z,50.63
2023-12-31T22:33:54.744Z,50.02
2023-12-31T22:36:25.081Z,50.59
2023-12-31T22:38:55.305Z,50.00
2023-12-31T22:41:25.516Z,50.10
2023-12-31T22:43:55.853Z,49.93
2023-12-31T22:46:32.448Z,49.03
2023-12-31T22:49:02.727Z,50.01
2023-12-31T22:51:32.984Z,49.79
2023-12-31T22:54:03.261Z,50.20
2023-12-31T22:56:33.329Z,49.90
2023-12-31T22:59:03.738Z,49.71
2023-12-31T23:01:33.790Z,50.19
2023-12-31T23:04:04.251Z,50.20
2023-12-31T23:06:34.399Z,50.58
2023-12-31T23:09:04.596Z,51.33
2023-12-31T23:11:35.117Z,50.85
2023-12-31T23:14:05.482Z,51.31
2023-12-31T23:16:35.807Z,51.13
2023-12-31T23:19:06.147Z,51.69
2023-12-31T23:21:36.125Z,51.71
2023-12-31T23:24:06.625Z,52.04
2023-12-31T23:26:38.496Z,52.23
2023-12-31T23:29:08.490Z,52.37
2023-12-31T23:31:39.069Z,52.51
2023-12-31T23:34:09.363Z,52.43
2023-12-31T23:36:46.687Z,52.76
2023-12-31T23:39:21.699Z,53.30
2023-12-31T23:41:51.838Z,53.13
2023-12-31T23:44:23.983Z,53.40
2023-12-31T23:46:55.438Z,53.63
2023-12-31T23:49:26.642Z,53.49
2023-12-31T23:51:58.094Z,53.54
2023-12-31T23:54:28.255Z,55.59
2023-12-31T23:56:58.441Z,55.78
2023-12-31T23:59:29.093Z,56.29
